createdAt,value
2018-02-15T00:02:58.176Z,97.80
2018-02-15T00:05:59.625Z,97.50
2018-02-15T00:09:01.074Z,98.00
2018-02-15T00:12:02.555Z,97.40
2018-02-15T00:15:04.812Z,98.00
2018-02-15T00:18:06.259Z,97.90
2018-02-15T00:21:07.751Z,97.70
2018-02-15T00:24:09.159Z,97.70
2018-02-15T00:27:10.604Z,97.80
2018-02-15T00:30:11.988Z,98.20
2018-02-15T00:33:14.273Z,97.80
2018-02-15T00:36:20.009Z,97.70
2018-02-15T00:39:21.514Z,97.70
2018-02-15T00:42:22.946Z,97.10
2018-02-15T00:45:25.279Z,97.90
2018-02-15T00:48:26.727Z,97.80
2018-02-15T00:51:28.920Z,97.40
2018-02-15T00:54:30.381Z,97.30
2018-02-15T00:57:31.868Z,97.50
2018-02-15T01:00:33.338Z,97.20
2018-02-15T01:03:34.816Z,97.60
2018-02-15T01:06:36.331Z,97.30
2018-02-15T01:09:37.732Z,96.90
2018-02-15T01:12:39.148Z,97.80
2018-02-15T01:15:41.319Z,96.80
2018-02-15T01:18:42.797Z,96.70
2018-02-15T01:21:44.266Z,97.00
2018-02-15T01:24:45.761Z,96.50
2018-02-15T01:27:47.204Z,97.10
2018-02-15T01:30:48.667Z,96.50
2018-02-15T01:33:50.868Z,96.80
2018-02-15T01:36:53.047Z,96.60
2018-02-15T01:39:54.458Z,96.50
2018-02-15T01:42:55.928Z,97.20
2018-02-15T01:45:57.333Z,97.40
2018-02-15T01:48:59.482Z,95.90
2018-02-15T01:52:00.950Z,95.80
2018-02-15T01:55:02.416Z,96.60
2018-02-15T01:58:03.813Z,96.00
2018-02-15T02:01:05.452Z,96.00
2018-02-15T02:04:07.599Z,96.20
2018-02-15T02:07:09.084Z,95.70
2018-02-15T02:10:10.516Z,95.70
2018-02-15T02:13:11.970Z,95.60
2018-02-15T02:16:13.410Z,95.30
2018-02-15T02:19:14.831Z,95.40
2018-02-15T02:22:16.300Z,95.00
2018-02-15T02:25:18.483Z,94.80
2018-02-15T02:28:19.882Z,94.80
2018-02-15T02:31:22.033Z,94.40
2018-02-15T02:34:23.463Z,94.40
2018-02-15T02:37:24.863Z,94.20
2018-02-15T02:40:26.980Z,93.80
2018-02-15T02:43:28.434Z,93.80
2018-02-15T02:46:30.569Z,93.70
2018-02-15T02:49:31.946Z,93.50
2018-02-15T02:52:33.339Z,94.30
2018-02-15T02:55:34.775Z,93.80
2018-02-15T02:58:36.213Z,92.90
2018-02-15T03:01:37.615Z,93.90
2018-02-15T03:04:39.128Z,93.00
2018-02-15T03:07:40.544Z,92.60
2018-02-15T03:10:42.663Z,93.00
2018-02-15T03:13:44.127Z,92.90
2018-02-15T03:16:45.627Z,91.90
2018-02-15T03:19:47.099Z,91.40
2018-02-15T03:22:49.266Z,91.20
2018-02-15T03:25:50.641Z,91.10
2018-02-15T03:28:52.116Z,90.80
2018-02-15T03:31:53.497Z,90.80
2018-02-15T03:34:54.992Z,91.00
2018-02-15T03:37:56.416Z,90.90
2018-02-15T03:40:58.912Z,90.30
2018-02-15T03:44:01.042Z,91.30
2018-02-15T03:47:02.435Z,91.00
2018-02-15T03:50:03.945Z,91.30
2018-02-15T03:53:06.121Z,91.80
2018-02-15T03:56:07.522Z,91.70
2018-02-15T03:59:09.006Z,91.90
2018-02-15T04:02:10.443Z,93.20
2018-02-15T04:05:12.588Z,93.40
2018-02-15T04:08:13.950Z,93.30
2018-02-15T04:11:15.391Z,93.60
2018-02-15T04:14:16.816Z,93.60
2018-02-15T04:17:18.221Z,93.90
2018-02-15T04:20:19.673Z,94.50
2018-02-15T04:23:21.161Z,95.10
2018-02-15T04:26:22.577Z,97.30
2018-02-15T04:29:24.017Z,98.90
2018-02-15T04:32:26.189Z,99.90
2018-02-15T04:35:27.622Z,99.90
2018-02-15T04:38:29.063Z,99.90
2018-02-15T04:41:30.471Z,99.90
2018-02-15T04:44:32.749Z,99.90
2018-02-15T04:47:34.273Z,99.90
2018-02-15T04:50:35.712Z,99.90
2018-02-15T04:53:37.141Z,99.90
2018-02-15T04:56:38.570Z,99.90
2018-02-15T04:59:40.049Z,99.90
2018-02-15T05:02:41.530Z,99.90
2018-02-15T05:05:42.973Z,99.90
2018-02-15T05:08:45.150Z,99.90
2018-02-15T05:14:55.590Z,99.90
2018-02-15T05:17:57.046Z,99.90
2018-02-15T05:20:58.447Z,99.90
2018-02-15T05:23:59.855Z,99.90
2018-02-15T05:27:02.018Z,99.90
2018-02-15T05:30:03.490Z,99.90
2018-02-15T05:33:04.937Z,99.90
2018-02-15T05:36:06.404Z,99.90
2018-02-15T05:39:08.555Z,99.90
2018-02-15T05:42:09.954Z,99.90
2018-02-15T05:45:12.442Z,99.90
2018-02-15T05:48:13.919Z,99.90
2018-02-15T05:51:15.399Z,99.90
2018-02-15T05:54:16.809Z,99.90
2018-02-15T05:57:18.239Z,99.90
2018-02-15T06:00:20.421Z,99.90
2018-02-15T06:03:21.865Z,99.90
2018-02-15T06:06:23.337Z,99.90
2018-02-15T06:09:24.805Z,99.90
2018-02-15T06:12:26.327Z,99.90
2018-02-15T06:15:27.805Z,99.90
2018-02-15T06:18:29.251Z,99.90
2018-02-15T06:21:31.412Z,99.90
2018-02-15T06:24:32.888Z,99.90
2018-02-15T06:27:34.428Z,99.90
2018-02-15T06:33:44.019Z,99.90
2018-02-15T06:36:45.542Z,99.90
2018-02-15T06:39:47.061Z,99.90
2018-02-15T06:42:49.278Z,99.90
2018-02-15T06:45:50.756Z,99.90
2018-02-15T06:48:52.256Z,99.90
2018-02-15T06:51:53.703Z,99.90
2018-02-15T06:54:55.199Z,99.90
2018-02-15T06:57:57.351Z,99.90
2018-02-15T07:00:58.759Z,99.90
2018-02-15T07:04:00.179Z,99.90
2018-02-15T07:07:01.579Z,99.90
2018-02-15T07:10:03.034Z,99.90
2018-02-15T07:13:05.208Z,99.90
2018-02-15T07:16:06.753Z,99.90
2018-02-15T07:19:08.180Z,99.90
2018-02-15T07:22:09.693Z,99.90
2018-02-15T07:25:11.138Z,99.90
2018-02-15T07:28:12.564Z,99.90
2018-02-15T07:31:13.973Z,99.90
2018-02-15T07:34:15.482Z,99.90
2018-02-15T07:37:16.896Z,99.90
2018-02-15T07:40:19.081Z,99.90
2018-02-15T07:43:20.497Z,99.90
2018-02-15T07:46:22.682Z,99.90
2018-02-15T07:49:24.867Z,99.90
2018-02-15T07:52:26.339Z,99.90
2018-02-15T07:55:27.778Z,99.90
2018-02-15T07:58:29.301Z,99.90
2018-02-15T08:01:30.719Z,99.90
2018-02-15T08:04:32.871Z,99.90
2018-02-15T08:07:34.326Z,99.90
2018-02-15T08:10:35.726Z,99.90
2018-02-15T08:13:37.167Z,99.90
2018-02-15T08:16:38.610Z,99.90
2018-02-15T08:19:40.152Z,99.90
2018-02-15T08:22:42.299Z,99.90
2018-02-15T08:25:44.494Z,99.90
2018-02-15T08:28:46.036Z,99.90
2018-02-15T08:31:47.564Z,99.90
2018-02-15T08:34:49.054Z,99.90
2018-02-15T08:37:50.550Z,99.90
2018-02-15T08:40:52.018Z,99.90
2018-02-15T08:43:54.182Z,99.90
2018-02-15T08:46:55.593Z,99.90
2018-02-15T08:49:57.814Z,99.90
2018-02-15T08:53:00.010Z,99.90
2018-02-15T08:56:01.419Z,99.90
2018-02-15T08:59:02.928Z,99.90
2018-02-15T09:02:04.389Z,99.90
2018-02-15T09:05:05.801Z,99.90
2018-02-15T09:08:07.236Z,99.90
2018-02-15T09:11:09.394Z,99.90
2018-02-15T09:14:11.461Z,99.90
2018-02-15T09:17:13.629Z,99.90
2018-02-15T09:20:15.158Z,99.90
2018-02-15T09:23:16.562Z,99.90
2018-02-15T09:26:17.921Z,99.90
2018-02-15T09:29:19.365Z,99.90
2018-02-15T09:32:20.804Z,99.90
2018-02-15T09:35:22.227Z,99.90
2018-02-15T09:38:23.630Z,99.90
2018-02-15T09:41:25.089Z,99.90
2018-02-15T09:44:26.478Z,99.90
2018-02-15T09:47:27.938Z,99.90
2018-02-15T09:50:29.363Z,99.90
2018-02-15T09:53:30.775Z,99.90
2018-02-15T09:56:32.171Z,99.90
2018-02-15T09:59:33.595Z,99.90
2018-02-15T10:02:35.056Z,99.90
2018-02-15T10:05:37.218Z,99.90
2018-02-15T10:08:38.670Z,99.90
2018-02-15T10:11:40.146Z,99.90
2018-02-15T10:14:41.564Z,99.90
2018-02-15T10:17:43.009Z,99.90
2018-02-15T10:20:44.437Z,99.90
2018-02-15T10:23:45.870Z,99.90
2018-02-15T10:26:48.045Z,99.90
2018-02-15T10:29:49.453Z,99.90
2018-02-15T10:32:50.880Z,99.90
2018-02-15T10:35:52.287Z,99.90
2018-02-15T10:38:53.718Z,99.90
2018-02-15T10:41:55.857Z,99.90
2018-02-15T10:44:57.295Z,99.90
2018-02-15T10:47:58.694Z,99.90
2018-02-15T10:51:00.118Z,99.90
2018-02-15T10:54:01.535Z,99.90
2018-02-15T10:57:02.971Z,99.90
2018-02-15T11:00:04.419Z,99.90
2018-02-15T11:03:12.034Z,99.90
2018-02-15T11:06:13.534Z,99.90
2018-02-15T11:09:14.978Z,99.90
2018-02-15T11:12:16.445Z,99.90
2018-02-15T11:15:17.899Z,99.90
2018-02-15T11:18:19.374Z,99.90
2018-02-15T11:21:20.818Z,99.90
2018-02-15T11:24:22.312Z,99.90
2018-02-15T11:27:23.793Z,99.90
2018-02-15T11:30:25.312Z,99.90
2018-02-15T11:33:26.762Z,99.90
2018-02-15T11:36:28.207Z,99.90
2018-02-15T11:39:29.693Z,99.90
2018-02-15T11:42:31.166Z,99.90
2018-02-15T11:45:32.586Z,99.90
2018-02-15T11:48:34.022Z,99.90
2018-02-15T11:51:35.425Z,99.90
2018-02-15T11:54:36.846Z,99.90
2018-02-15T11:57:38.289Z,99.90
2018-02-15T12:00:39.858Z,99.90
2018-02-15T12:03:42.107Z,99.90
2018-02-15T12:06:43.547Z,99.90
2018-02-15T12:09:45.714Z,99.90
2018-02-15T12:12:47.126Z,99.90
2018-02-15T12:15:49.273Z,99.90
2018-02-15T12:18:50.718Z,99.90
2018-02-15T12:21:52.142Z,99.90
2018-02-15T12:24:53.585Z,99.90
2018-02-15T12:27:55.766Z,99.90
2018-02-15T12:30:57.967Z,99.90
2018-02-15T12:34:00.127Z,99.90
2018-02-15T12:37:01.559Z,99.90
2018-02-15T12:40:03.718Z,99.90
2018-02-15T12:43:05.922Z,99.90
2018-02-15T12:46:07.373Z,99.90
2018-02-15T12:49:08.834Z,99.90
2018-02-15T12:52:10.297Z,99.90
2018-02-15T12:55:12.604Z,99.90
2018-02-15T12:58:14.235Z,99.90
2018-02-15T13:01:15.859Z,99.90
2018-02-15T13:04:17.342Z,99.90
2018-02-15T13:07:19.640Z,99.90
2018-02-15T13:10:21.093Z,99.90
2018-02-15T13:13:30.509Z,99.90
2018-02-15T13:16:50.273Z,99.90
2018-02-15T13:20:07.784Z,99.90
2018-02-15T13:23:09.225Z,99.90
2018-02-15T13:26:12.379Z,99.90
2018-02-15T13:29:13.880Z,99.90
2018-02-15T13:32:15.345Z,99.90
2018-02-15T13:35:16.901Z,99.90
2018-02-15T13:38:18.417Z,99.90
2018-02-15T13:41:19.945Z,99.90
2018-02-15T13:44:21.533Z,99.90
2018-02-15T13:47:23.135Z,99.90
2018-02-15T13:50:24.579Z,99.90
2018-02-15T13:53:26.042Z,99.90
2018-02-15T13:56:27.571Z,99.90
2018-02-15T13:59:29.415Z,99.90
2018-02-15T14:02:30.970Z,99.90
2018-02-15T14:05:33.157Z,99.90
2018-02-15T14:08:34.579Z,99.90
2018-02-15T14:11:36.500Z,99.90
2018-02-15T14:14:40.164Z,99.90
2018-02-15T14:17:42.455Z,99.90
2018-02-15T14:20:44.092Z,99.90
2018-02-15T14:23:45.727Z,99.90
2018-02-15T14:26:47.540Z,99.90
2018-02-15T14:29:49.003Z,99.90
2018-02-15T14:32:51.020Z,99.90
2018-02-15T14:35:53.111Z,99.90
2018-02-15T14:38:54.660Z,99.90
2018-02-15T14:41:56.121Z,99.90
2018-02-15T14:44:58.449Z,99.90
2018-02-15T14:48:00.736Z,99.90
2018-02-15T14:51:02.884Z,99.90
2018-02-15T14:54:05.732Z,99.90
2018-02-15T14:57:07.388Z,99.90
2018-02-15T15:00:10.161Z,99.90
2018-02-15T15:03:11.720Z,99.90
2018-02-15T15:06:13.255Z,99.90
2018-02-15T15:09:15.378Z,99.90
2018-02-15T15:12:16.969Z,99.90
2018-02-15T15:15:18.624Z,99.90
2018-02-15T15:18:20.529Z,99.90
2018-02-15T15:21:22.230Z,99.90
2018-02-15T15:24:24.575Z,99.90
2018-02-15T15:27:27.274Z,99.90
2018-02-15T15:30:29.788Z,99.90
2018-02-15T15:33:32.024Z,99.90
2018-02-15T15:36:33.595Z,99.90
2018-02-15T15:39:34.999Z,99.90
2018-02-15T15:42:36.570Z,99.90
2018-02-15T15:45:38.791Z,99.90
2018-02-15T15:48:40.293Z,99.90
2018-02-15T15:51:42.539Z,99.90
2018-02-15T15:54:44.070Z,99.90
2018-02-15T15:57:45.479Z,99.90
2018-02-15T16:00:47.683Z,99.90
2018-02-15T16:03:49.981Z,99.90
2018-02-15T16:06:52.242Z,99.90
2018-02-15T16:09:53.720Z,99.90
2018-02-15T16:12:55.394Z,99.90
2018-02-15T16:15:57.803Z,99.90
2018-02-15T16:18:59.521Z,99.90
2018-02-15T16:22:01.028Z,99.90
2018-02-15T16:25:02.560Z,99.90
2018-02-15T16:28:04.023Z,99.90
2018-02-15T16:31:06.240Z,99.90
2018-02-15T16:34:08.384Z,99.90
2018-02-15T16:37:10.568Z,99.90
2018-02-15T16:40:12.063Z,99.90
2018-02-15T16:43:14.063Z,99.90
2018-02-15T16:46:15.531Z,99.90
2018-02-15T16:49:17.044Z,99.90
2018-02-15T16:52:18.500Z,99.90
2018-02-15T16:55:19.958Z,99.90
2018-02-15T16:58:22.150Z,99.90
2018-02-15T17:01:23.613Z,99.90
2018-02-15T17:04:25.045Z,99.90
2018-02-15T17:07:27.238Z,99.90
2018-02-15T17:10:29.409Z,99.90
2018-02-15T17:13:31.072Z,99.90
2018-02-15T17:16:32.545Z,99.90
2018-02-15T17:19:34.018Z,99.90
2018-02-15T17:22:35.569Z,99.90
2018-02-15T17:25:37.073Z,99.90
2018-02-15T17:28:39.309Z,99.90
2018-02-15T17:31:40.772Z,99.90
2018-02-15T17:34:42.256Z,99.90
2018-02-15T17:37:44.459Z,99.90
2018-02-15T17:40:46.689Z,99.90
2018-02-15T17:43:48.168Z,99.90
2018-02-15T17:46:49.656Z,99.90
2018-02-15T17:49:51.139Z,99.90
2018-02-15T17:52:52.576Z,99.90
2018-02-15T17:55:54.044Z,99.90
2018-02-15T17:58:55.517Z,99.90
2018-02-15T18:01:57.024Z,99.90
2018-02-15T18:04:58.519Z,99.90
2018-02-15T18:08:00.036Z,99.90
2018-02-15T18:11:01.561Z,99.90
2018-02-15T18:14:03.012Z,99.90
2018-02-15T18:17:04.501Z,99.90
2018-02-15T18:20:06.129Z,99.90
2018-02-15T18:23:08.126Z,99.90
2018-02-15T18:26:09.920Z,99.90
2018-02-15T18:29:11.648Z,99.90
2018-02-15T18:32:13.526Z,99.90
2018-02-15T18:35:15.772Z,99.90
2018-02-15T18:38:17.278Z,99.90
2018-02-15T18:41:18.753Z,99.90
2018-02-15T18:44:20.200Z,99.90
2018-02-15T18:47:21.641Z,99.90
2018-02-15T18:50:23.146Z,99.90
2018-02-15T18:53:24.565Z,99.90
2018-02-15T18:56:25.985Z,99.90
2018-02-15T18:59:27.419Z,99.90
2018-02-15T19:02:28.978Z,99.90
2018-02-15T19:05:30.403Z,99.90
2018-02-15T19:08:31.830Z,99.90
2018-02-15T19:11:33.277Z,99.90
2018-02-15T19:14:34.742Z,99.90
2018-02-15T19:17:36.472Z,99.90
2018-02-15T19:20:38.640Z,99.90
2018-02-15T19:23:40.085Z,99.90
2018-02-15T19:26:41.864Z,99.90
2018-02-15T19:29:44.298Z,99.90
2018-02-15T19:32:45.736Z,99.90
2018-02-15T19:35:47.998Z,99.90
2018-02-15T19:38:50.668Z,99.90
2018-02-15T19:41:52.266Z,99.90
2018-02-15T19:44:54.196Z,99.90
2018-02-15T19:47:55.663Z,99.90
2018-02-15T19:50:57.153Z,99.90
2018-02-15T19:53:59.691Z,99.90
2018-02-15T19:57:02.228Z,99.90
2018-02-15T20:00:03.896Z,99.90
2018-02-15T20:03:06.373Z,99.90
2018-02-15T20:06:07.979Z,99.90
2018-02-15T20:09:11.232Z,99.90
2018-02-15T20:12:12.784Z,99.90
2018-02-15T20:15:14.496Z,99.90
2018-02-15T20:18:15.971Z,99.90
2018-02-15T20:21:17.483Z,99.90
2018-02-15T20:24:19.898Z,99.90
2018-02-15T20:27:27.414Z,99.90
2018-02-15T20:30:30.029Z,99.90
2018-02-15T20:33:32.358Z,99.90
2018-02-15T20:36:33.838Z,99.90
2018-02-15T20:39:41.230Z,99.90
2018-02-15T20:42:42.645Z,99.90
2018-02-15T20:45:45.087Z,99.90
2018-02-15T20:48:46.614Z,99.90
2018-02-15T20:51:54.259Z,99.90
2018-02-15T20:55:02.704Z,99.90
2018-02-15T20:58:05.012Z,99.90
2018-02-15T21:01:07.135Z,99.90
2018-02-15T21:04:08.787Z,99.90
2018-02-15T21:07:10.216Z,99.90
2018-02-15T21:10:11.724Z,99.90
2018-02-15T21:13:13.252Z,99.90
2018-02-15T21:16:15.433Z,99.90
2018-02-15T21:19:16.806Z,99.90
2018-02-15T21:22:18.219Z,99.90
2018-02-15T21:25:19.710Z,99.90
2018-02-15T21:28:22.035Z,99.90
2018-02-15T21:31:23.653Z,99.90
2018-02-15T21:34:25.179Z,99.90
2018-02-15T21:37:26.586Z,99.90
2018-02-15T21:40:29.116Z,99.90
2018-02-15T21:43:30.628Z,99.90
2018-02-15T21:46:32.115Z,99.90
2018-02-15T21:49:34.258Z,99.90
2018-02-15T21:52:35.862Z,99.90
2018-02-15T21:55:37.403Z,99.90
2018-02-15T21:58:38.936Z,99.90
2018-02-15T22:01:40.451Z,99.90
2018-02-15T22:04:42.126Z,99.90
2018-02-15T22:07:43.706Z,99.90
2018-02-15T22:10:45.357Z,99.90
2018-02-15T22:13:48.373Z,99.90
2018-02-15T22:16:49.941Z,99.90
2018-02-15T22:19:51.438Z,99.90
2018-02-15T22:22:52.994Z,99.90
2018-02-15T22:25:54.552Z,99.90
2018-02-15T22:28:56.886Z,99.90
2018-02-15T22:31:58.335Z,99.90
2018-02-15T22:35:00.571Z,99.90
2018-02-15T22:38:02.015Z,99.90
2018-02-15T22:41:07.245Z,99.90
2018-02-15T22:44:09.874Z,99.90
2018-02-15T22:47:11.421Z,99.90
2018-02-15T22:50:12.851Z,99.90
2018-02-15T22:53:14.320Z,99.90
2018-02-15T22:56:15.789Z,99.90
2018-02-15T22:59:17.289Z,99.90
2018-02-15T23:02:18.792Z,99.90
2018-02-15T23:05:20.271Z,99.90
2018-02-15T23:08:21.695Z,99.90
2018-02-15T23:11:23.161Z,99.90
2018-02-15T23:14:24.632Z,99.90
2018-02-15T23:17:26.071Z,99.90
2018-02-15T23:20:27.500Z,99.90
2018-02-15T23:23:28.935Z,99.90
2018-02-15T23:26:30.369Z,99.90
2018-02-15T23:29:31.875Z,99.90
2018-02-15T23:32:33.323Z,99.90
2018-02-15T23:35:34.796Z,99.90
2018-02-15T23:38:36.289Z,99.90
2018-02-15T23:41:37.809Z,99.90
2018-02-15T23:44:39.269Z,99.90
2018-02-15T23:47:40.749Z,99.90
2018-02-15T23:50:42.198Z,99.90
2018-02-15T23:53:44.396Z,99.90
2018-02-15T23:56:45.905Z,99.90
2018-02-15T23:59:48.127Z,99.90
